Time;durP1;ratioP1;P1;durP2;ratioP2;P2;SDS_P1;SDS_P2;PMS_P1;PMS_P2;Temp;Humidity;BMP_temperature;BMP_pressure;BME280_temperature;BME280_humidity;BME280_pressure;Samples;Min_cycle;Max_cycle;Signal;HPM_P1;HPM_P2
2023/03/26 00:05:17;;;;;;;8.30;2.97;;;7.60;99.90;;;;;;15399662;23;20406;-79
2023/03/26 00:11:21;;;;;;;7.13;2.45;;;7.60;99.90;;;;;;15398359;23;20065;-79
2023/03/26 00:17:23;;;;;;;8.03;2.80;;;7.60;99.90;;;;;;15401224;23;20024;-79
2023/03/26 00:23:27;;;;;;;8.85;2.28;;;7.60;99.90;;;;;;15399190;23;20032;-80
2023/03/26 00:29:32;;;;;;;8.57;2.35;;;7.60;99.90;;;;;;15396372;23;20027;-78
2023/03/26 00:35:37;;;;;;;5.80;2.28;;;7.70;99.90;;;;;;15422305;23;20027;-79
2023/03/26 00:41:41;;;;;;;7.20;2.10;;;7.70;99.90;;;;;;15428430;23;20415;-80
2023/03/26 00:47:44;;;;;;;5.90;2.00;;;7.60;99.90;;;;;;15424059;23;20044;-79
2023/03/26 00:53:47;;;;;;;12.30;2.60;;;7.70;99.90;;;;;;15425340;23;20094;-79
2023/03/26 00:59:49;;;;;;;15.30;3.33;;;7.70;99.90;;;;;;15402014;23;20084;-79
2023/03/26 01:06:03;;;;;;;12.13;3.25;;;7.70;99.90;;;;;;15423622;23;20078;-79
2023/03/26 01:12:07;;;;;;;7.73;2.70;;;7.70;99.90;;;;;;15387425;23;20074;-78
2023/03/26 01:18:12;;;;;;;12.47;2.80;;;7.60;99.90;;;;;;15389242;23;20132;-80
2023/03/26 01:24:15;;;;;;;9.88;2.80;;;7.60;99.90;;;;;;15458113;23;20023;-77
2023/03/26 01:30:41;;;;;;;11.38;3.15;;;7.70;99.90;;;;;;15495369;23;20097;-79
2023/03/26 01:36:48;;;;;;;8.77;2.83;;;7.70;99.90;;;;;;15505115;22;20024;-79
2023/03/26 01:42:55;;;;;;;9.55;3.17;;;7.70;99.90;;;;;;15499157;22;20467;-78
2023/03/26 01:48:57;;;;;;;12.25;3.22;;;7.70;99.90;;;;;;15501591;23;20016;-78
2023/03/26 01:54:59;;;;;;;11.45;3.53;;;7.70;99.90;;;;;;15499464;22;20027;-79
2023/03/26 02:01:36;;;;;;;11.52;4.07;;;7.60;99.90;;;;;;15499059;22;20020;-79
2023/03/26 02:08:34;;;;;;;14.45;4.72;;;7.70;99.90;;;;;;15481561;23;20028;-79
2023/03/26 02:14:36;;;;;;;11.52;4.57;;;7.70;99.90;;;;;;15409615;23;20024;-79
2023/03/26 02:20:38;;;;;;;14.05;4.57;;;7.60;99.90;;;;;;15523592;22;20024;-79
2023/03/26 02:26:40;;;;;;;15.13;4.28;;;7.60;99.90;;;;;;15485189;22;20569;-79
2023/03/26 02:32:42;;;;;;;14.30;4.47;;;7.60;99.90;;;;;;15492712;22;20009;-79
2023/03/26 02:38:45;;;;;;;15.93;4.57;;;7.60;99.90;;;;;;15463335;23;20017;-79
2023/03/26 02:44:47;;;;;;;13.27;4.15;;;7.50;99.90;;;;;;15433640;23;20103;-79
2023/03/26 02:50:52;;;;;;;15.98;4.28;;;7.20;99.90;;;;;;15407500;23;20066;-79
2023/03/26 02:56:55;;;;;;;18.55;4.65;;;6.90;99.90;;;;;;15435086;23;20016;-78
2023/03/26 03:02:57;;;;;;;12.73;4.88;;;6.80;99.90;;;;;;15434280;23;20527;-78
2023/03/26 03:09:03;;;;;;;14.18;4.85;;;6.80;99.90;;;;;;15424886;23;20024;-78
2023/03/26 03:15:06;;;;;;;16.95;5.15;;;6.60;99.90;;;;;;15431950;23;20454;-79
2023/03/26 03:21:08;;;;;;;14.07;5.25;;;6.40;99.90;;;;;;15433181;23;20336;-78
2023/03/26 03:27:11;;;;;;;14.73;5.80;;;6.30;99.90;;;;;;15400479;23;20399;-79
2023/03/26 03:33:13;;;;;;;18.58;5.60;;;6.30;99.90;;;;;;15402811;23;20086;-79
2023/03/26 03:39:15;;;;;;;13.82;6.10;;;6.40;99.90;;;;;;15400946;23;20095;-78
2023/03/26 03:45:17;;;;;;;15.75;5.85;;;6.50;99.90;;;;;;15403680;23;20071;-80
2023/03/26 03:51:19;;;;;;;18.02;5.53;;;6.80;99.90;;;;;;15400776;23;20036;-78
2023/03/26 03:57:21;;;;;;;12.50;5.30;;;7.00;99.90;;;;;;15398253;23;20040;-78
2023/03/26 04:03:23;;;;;;;11.02;5.07;;;7.10;99.90;;;;;;15430958;23;20019;-79
2023/03/26 04:09:35;;;;;;;15.40;5.03;;;7.20;99.90;;;;;;15407953;23;20021;-78
2023/03/26 04:15:37;;;;;;;15.50;6.20;;;7.10;99.90;;;;;;15427923;23;20025;-78
2023/03/26 04:21:41;;;;;;;14.10;6.10;;;7.00;99.90;;;;;;15404050;23;20071;-79
2023/03/26 04:27:43;;;;;;;25.73;7.00;;;7.10;99.90;;;;;;15400217;23;20100;-79
2023/03/26 04:33:46;;;;;;;24.60;7.95;;;7.00;99.90;;;;;;15427718;23;20028;-79
2023/03/26 04:39:49;;;;;;;19.27;8.75;;;7.00;99.90;;;;;;15404249;23;20332;-78
2023/03/26 04:45:51;;;;;;;24.35;8.68;;;7.00;99.90;;;;;;15418168;23;20530;-79
2023/03/26 04:51:54;;;;;;;19.98;8.90;;;7.00;99.90;;;;;;15427449;23;20533;-78
2023/03/26 04:58:03;;;;;;;18.55;9.55;;;7.00;99.90;;;;;;15399821;23;20070;-80
2023/03/26 05:04:05;;;;;;;21.10;10.13;;;7.00;99.90;;;;;;15400635;23;20048;-79
2023/03/26 05:10:11;;;;;;;19.33;9.27;;;7.10;99.90;;;;;;15399315;23;20016;-78
2023/03/26 05:16:13;;;;;;;19.05;9.45;;;7.20;99.90;;;;;;15340367;23;20024;-79
2023/03/26 05:22:15;;;;;;;18.33;9.52;;;7.20;99.90;;;;;;15425858;23;20591;-79
2023/03/26 05:28:19;;;;;;;20.23;9.20;;;7.20;99.90;;;;;;15388859;23;20075;-78
2023/03/26 05:34:25;;;;;;;;;;;7.20;99.90;;;;;;15401083;23;20025;-78
2023/03/26 05:40:28;;;;;;;29.15;10.18;;;7.20;99.90;;;;;;15416603;23;19916;-78
2023/03/26 05:46:31;;;;;;;17.17;8.63;;;7.30;99.90;;;;;;15396598;23;20056;-78
2023/03/26 05:52:33;;;;;;;24.02;8.82;;;7.30;99.90;;;;;;15401661;23;20124;-78
2023/03/26 05:58:36;;;;;;;19.10;8.65;;;7.30;99.90;;;;;;15397963;23;20043;-79
2023/03/26 06:04:41;;;;;;;25.35;8.63;;;7.30;99.90;;;;;;15393330;23;20025;-80
2023/03/26 06:10:43;;;;;;;17.55;8.25;;;7.40;99.90;;;;;;15396259;23;20074;-78
2023/03/26 06:16:45;;;;;;;19.95;8.27;;;7.40;99.90;;;;;;15396825;23;20037;-79
2023/03/26 06:22:47;;;;;;;17.67;8.38;;;7.30;99.90;;;;;;15397939;23;20102;-79
2023/03/26 06:28:50;;;;;;;17.60;7.63;;;7.40;99.90;;;;;;15402589;23;20021;-79
2023/03/26 06:34:57;;;;;;;18.15;7.97;;;7.40;99.90;;;;;;15396032;23;20028;-79
2023/03/26 06:41:05;;;;;;;24.20;7.35;;;7.30;99.90;;;;;;15408168;23;20355;-79
2023/03/26 06:47:07;;;;;;;17.55;8.18;;;7.50;99.90;;;;;;15430609;23;20056;-79
2023/03/26 06:53:10;;;;;;;23.02;8.82;;;7.60;99.90;;;;;;15399555;23;20024;-79
2023/03/26 06:59:12;;;;;;;23.83;9.18;;;7.60;99.90;;;;;;15431744;23;20106;-79
2023/03/26 07:05:14;;;;;;;21.27;8.57;;;7.70;99.90;;;;;;15399041;23;20470;-79
2023/03/26 07:11:19;;;;;;;16.60;8.45;;;7.60;99.90;;;;;;15432780;23;20024;-78
2023/03/26 07:17:21;;;;;;;18.45;8.68;;;7.70;99.90;;;;;;15400653;23;20032;-79
2023/03/26 07:23:23;;;;;;;23.60;9.63;;;7.80;99.90;;;;;;15397814;23;20025;-80
2023/03/26 07:29:44;;;;;;;23.17;9.68;;;7.70;99.90;;;;;;15427822;23;20103;-79
2023/03/26 07:36:17;;;;;;;16.67;9.00;;;7.70;99.90;;;;;;15402202;23;20021;-79
2023/03/26 07:42:42;;;;;;;20.25;8.95;;;7.90;99.90;;;;;;15399895;23;20029;-79
2023/03/26 07:48:48;;;;;;;19.85;9.07;;;8.20;99.90;;;;;;15395264;23;20068;-79
2023/03/26 07:54:51;;;;;;;23.20;9.57;;;8.10;99.90;;;;;;15401915;23;20106;-79
2023/03/26 08:01:01;;;;;;;17.23;9.07;;;7.90;99.90;;;;;;15399740;23;20469;-79
2023/03/26 08:07:15;;;;;;;21.38;7.57;;;7.80;99.90;;;;;;15402443;23;20107;-79
2023/03/26 08:13:35;;;;;;;12.85;7.10;;;7.80;99.90;;;;;;15422049;23;20036;-79
2023/03/26 08:19:57;;;;;;;9.80;4.53;;;8.00;99.90;;;;;;15398609;23;20025;-79
2023/03/26 08:26:23;;;;;;;12.88;5.60;;;8.40;99.90;;;;;;15422514;23;20581;-79
2023/03/26 08:38:28;;;;;;;12.55;4.40;;;8.40;99.90;;;;;;15498194;23;20418;-80
2023/03/26 08:45:08;;;;;;;11.82;5.40;;;8.30;99.90;;;;;;15504748;22;20032;-80
2023/03/26 08:51:47;;;;;;;12.00;5.38;;;8.20;99.90;;;;;;15486365;22;20047;-79
2023/03/26 08:58:37;;;;;;;9.45;3.85;;;8.00;99.90;;;;;;15440281;23;20030;-80
2023/03/26 09:04:59;;;;;;;6.75;2.90;;;8.30;99.90;;;;;;15396813;23;20055;-79
2023/03/26 09:11:45;;;;;;;7.97;2.60;;;8.20;99.90;;;;;;15478671;22;20024;-79
2023/03/26 09:18:24;;;;;;;8.48;3.20;;;8.00;99.90;;;;;;15477462;23;20058;-79
2023/03/26 09:25:04;;;;;;;8.93;3.50;;;7.90;99.90;;;;;;15474353;23;20429;-79
2023/03/26 09:31:41;;;;;;;11.85;3.67;;;8.20;99.90;;;;;;15476467;22;20024;-79
2023/03/26 09:37:55;;;;;;;9.48;2.88;;;8.60;99.90;;;;;;15431179;23;20339;-79
2023/03/26 09:44:23;;;;;;;6.93;2.58;;;8.80;99.90;;;;;;15401020;23;20075;-79
2023/03/26 09:50:52;;;;;;;7.30;2.22;;;9.10;99.90;;;;;;15410139;23;20023;-79
2023/03/26 09:57:01;;;;;;;10.38;2.85;;;9.20;99.90;;;;;;15400859;23;20013;-79
2023/03/26 10:03:26;;;;;;;9.02;3.13;;;9.20;99.90;;;;;;15427220;23;20454;-79
2023/03/26 10:09:36;;;;;;;11.43;3.20;;;9.00;99.90;;;;;;15400533;23;20098;-79
2023/03/26 10:16:11;;;;;;;13.48;3.90;;;9.00;99.90;;;;;;15425387;23;20347;-79
2023/03/26 10:22:41;;;;;;;8.10;3.15;;;9.10;99.90;;;;;;15346232;23;20029;-79
2023/03/26 10:28:59;;;;;;;13.23;4.00;;;9.10;99.90;;;;;;15404823;23;20460;-79
2023/03/26 10:35:44;;;;;;;12.90;3.83;;;9.20;99.90;;;;;;15427548;23;20537;-79
2023/03/26 10:41:52;;;;;;;11.13;4.05;;;9.20;99.90;;;;;;15318786;23;20123;-80
2023/03/26 10:48:11;;;;;;;8.77;3.80;;;9.80;99.90;;;;;;15427553;23;20033;-81
2023/03/26 10:54:25;;;;;;;12.00;5.00;;;9.90;99.90;;;;;;15422491;23;20032;-79
2023/03/26 11:00:28;;;;;;;13.20;4.95;;;10.20;99.90;;;;;;15425687;23;20039;-80
2023/03/26 11:06:59;;;;;;;17.45;5.10;;;10.20;99.90;;;;;;15425890;23;20035;-79
2023/03/26 11:13:26;;;;;;;11.77;4.43;;;10.40;99.90;;;;;;15401810;23;20021;-80
2023/03/26 11:19:52;;;;;;;13.55;4.65;;;10.40;99.90;;;;;;15428384;23;20025;-79
2023/03/26 11:25:53;;;;;;;;;;;10.40;99.90;;;;;;15395888;23;20044;-79
2023/03/26 11:32:16;;;;;;;11.65;3.80;;;9.90;99.90;;;;;;15428677;23;19955;-79
2023/03/26 11:38:37;;;;;;;12.82;4.28;;;9.60;99.90;;;;;;15403531;23;20034;-79
2023/03/26 11:44:46;;;;;;;10.05;3.40;;;9.40;99.90;;;;;;15428813;23;20021;-79
2023/03/26 11:50:54;;;;;;;10.68;3.30;;;9.40;99.90;;;;;;15431605;23;20095;-80
2023/03/26 11:57:04;;;;;;;7.28;2.90;;;9.40;99.90;;;;;;15405717;23;20070;-79
2023/03/26 12:03:14;;;;;;;7.28;2.60;;;9.60;99.90;;;;;;15427911;23;20090;-80
2023/03/26 12:09:18;;;;;;;7.55;3.05;;;9.70;99.90;;;;;;15414923;23;20107;-79
2023/03/26 12:15:21;;;;;;;12.55;3.25;;;9.40;99.90;;;;;;15401186;23;20462;-79
2023/03/26 12:21:23;;;;;;;8.25;3.00;;;9.70;99.90;;;;;;15403226;23;20025;-79
2023/03/26 12:27:29;;;;;;;8.07;2.88;;;9.60;99.90;;;;;;15427879;23;20485;-79
2023/03/26 12:33:33;;;;;;;7.75;2.72;;;9.60;99.90;;;;;;15428678;23;20027;-82
2023/03/26 12:39:39;;;;;;;;;;;9.50;99.90;;;;;;15427948;23;20016;-79
2023/03/26 12:46:01;;;;;;;8.35;2.97;;;9.80;99.90;;;;;;15428223;23;19916;-78
2023/03/26 12:52:58;;;;;;;10.75;2.65;;;9.60;99.90;;;;;;15427508;23;20076;-79
2023/03/26 12:59:38;;;;;;;7.53;2.30;;;9.70;99.90;;;;;;15400425;23;20024;-79
2023/03/26 13:06:28;;;;;;;6.57;2.30;;;9.70;99.90;;;;;;15377260;23;20020;-79
2023/03/26 13:12:37;;;;;;;10.38;2.60;;;9.40;99.90;;;;;;15285464;23;20024;-79
2023/03/26 13:18:49;;;;;;;7.60;2.30;;;9.40;99.90;;;;;;15419998;23;20350;-78
2023/03/26 13:24:54;;;;;;;8.95;2.47;;;9.20;99.90;;;;;;15402506;23;20099;-79
2023/03/26 13:31:23;;;;;;;6.07;2.72;;;9.20;99.90;;;;;;15423541;23;20021;-78
2023/03/26 13:37:48;;;;;;;13.35;3.50;;;9.00;99.90;;;;;;15467261;23;20122;-78
2023/03/26 13:43:56;;;;;;;14.20;4.90;;;8.70;99.90;;;;;;15489932;22;20354;-78
2023/03/26 13:50:23;;;;;;;13.55;4.30;;;8.70;99.90;;;;;;15500613;23;20024;-79
2023/03/26 13:56:30;;;;;;;14.00;4.20;;;8.60;99.90;;;;;;15502025;23;20359;-79
2023/03/26 14:02:34;;;;;;;9.68;3.78;;;8.60;99.90;;;;;;15504784;22;20016;-80
2023/03/26 14:09:01;;;;;;;18.67;4.50;;;8.30;99.90;;;;;;15502869;23;20028;-80
2023/03/26 14:15:09;;;;;;;15.90;4.32;;;8.20;99.90;;;;;;15495643;23;20480;-79
2023/03/26 14:21:42;;;;;;;16.38;4.45;;;8.10;99.90;;;;;;15506978;23;20028;-80
2023/03/26 14:28:04;;;;;;;11.85;3.38;;;8.00;99.90;;;;;;15506455;23;20047;-80
2023/03/26 14:34:28;;;;;;;14.63;3.60;;;7.90;99.90;;;;;;15472891;22;20048;-80
2023/03/26 14:40:49;;;;;;;9.45;2.90;;;7.80;99.90;;;;;;15393159;23;20056;-80
2023/03/26 14:47:34;;;;;;;15.13;4.00;;;7.60;99.90;;;;;;15427233;23;20398;-80
2023/03/26 14:53:47;;;;;;;11.55;3.35;;;7.50;99.90;;;;;;15197222;23;20531;-79
2023/03/26 15:00:15;;;;;;;8.45;2.60;;;7.70;99.90;;;;;;15423915;23;20016;-79
2023/03/26 15:06:47;;;;;;;11.27;2.72;;;7.60;99.90;;;;;;15426780;23;20020;-79
2023/03/26 15:13:28;;;;;;;11.73;2.45;;;7.40;99.90;;;;;;15403068;23;20374;-79
2023/03/26 15:19:44;;;;;;;7.68;2.45;;;7.40;99.90;;;;;;15403810;23;20056;-80
2023/03/26 15:26:20;;;;;;;12.27;2.58;;;7.30;99.90;;;;;;15399129;23;20068;-80
2023/03/26 15:32:40;;;;;;;12.88;3.20;;;7.40;99.90;;;;;;15391876;23;20023;-80
2023/03/26 15:38:45;;;;;;;5.75;2.03;;;7.40;99.90;;;;;;15426281;23;20021;-79
2023/03/26 15:45:14;;;;;;;7.60;1.70;;;7.40;99.90;;;;;;15423955;22;20024;-80
2023/03/26 15:51:34;;;;;;;14.77;3.67;;;7.50;99.90;;;;;;15399650;23;20024;-80
2023/03/26 15:58:06;;;;;;;10.73;2.53;;;7.50;99.90;;;;;;15428976;23;20020;-79
2023/03/26 16:04:37;;;;;;;14.82;3.00;;;7.50;99.90;;;;;;15398251;23;20109;-80
2023/03/26 16:10:51;;;;;;;13.20;3.45;;;7.40;99.90;;;;;;15427933;22;20079;-81
2023/03/26 16:16:56;;;;;;;15.13;3.28;;;7.40;99.90;;;;;;15404339;23;20066;-80
2023/03/26 16:23:03;;;;;;;15.25;3.17;;;7.30;99.90;;;;;;15399541;23;20025;-80
2023/03/26 16:29:17;;;;;;;9.75;2.00;;;7.20;99.90;;;;;;15398518;23;20040;-80
2023/03/26 16:35:18;;;;;;;10.77;2.37;;;7.20;99.90;;;;;;15419918;22;20020;-80
2023/03/26 16:41:27;;;;;;;14.10;2.50;;;7.20;99.90;;;;;;15422280;23;20127;-80
2023/03/26 16:47:50;;;;;;;8.35;1.67;;;7.20;99.90;;;;;;15393669;23;20025;-80
2023/03/26 16:54:16;;;;;;;10.60;2.53;;;7.20;99.90;;;;;;15400747;23;20024;-80
2023/03/26 17:00:23;;;;;;;14.98;2.38;;;7.20;99.90;;;;;;15392155;23;20064;-80
2023/03/26 17:06:45;;;;;;;12.68;2.13;;;7.00;99.90;;;;;;15425849;23;20025;-80
2023/03/26 17:12:53;;;;;;;14.73;2.33;;;7.00;99.90;;;;;;15424421;23;20016;-80
2023/03/26 17:19:16;;;;;;;13.60;2.60;;;7.00;99.90;;;;;;15395201;23;20033;-80
2023/03/26 17:25:33;;;;;;;17.15;2.50;;;6.90;99.90;;;;;;15422647;23;20021;-80
2023/03/26 17:31:43;;;;;;;14.20;2.08;;;6.90;99.90;;;;;;15393874;23;20021;-81
2023/03/26 17:37:46;;;;;;;17.42;2.78;;;6.80;99.90;;;;;;15472723;23;20023;-81
2023/03/26 17:43:50;;;;;;;12.65;1.95;;;6.70;99.90;;;;;;15498376;22;20056;-80
2023/03/26 17:49:59;;;;;;;13.70;2.07;;;6.60;99.90;;;;;;15523200;22;20035;-80
2023/03/26 17:56:05;;;;;;;12.52;2.30;;;6.40;99.90;;;;;;15498040;23;20024;-80
2023/03/26 18:02:14;;;;;;;12.40;1.75;;;6.30;99.90;;;;;;15500735;22;20117;-80
2023/03/26 18:08:16;;;;;;;11.27;1.58;;;6.20;99.90;;;;;;15505548;23;20028;-80
2023/03/26 18:14:46;;;;;;;10.88;2.08;;;6.10;99.90;;;;;;15505278;23;20024;-80
2023/03/26 18:20:50;;;;;;;9.75;1.45;;;5.90;99.90;;;;;;15505583;22;20085;-80
2023/03/26 18:27:00;;;;;;;11.15;1.83;;;5.80;99.90;;;;;;15503707;23;20325;-82
2023/03/26 18:33:11;;;;;;;11.90;1.73;;;5.70;99.90;;;;;;15505064;22;20044;-80
2023/03/26 18:39:13;;;;;;;11.27;1.88;;;5.60;99.90;;;;;;15432020;23;20023;-80
2023/03/26 18:45:28;;;;;;;12.20;1.70;;;5.50;99.90;;;;;;15399927;23;20032;-79
2023/03/26 18:51:31;;;;;;;8.55;2.42;;;5.30;99.90;;;;;;15406588;23;20016;-80
2023/03/26 18:57:37;;;;;;;8.95;1.55;;;5.20;99.90;;;;;;15402951;23;20023;-80
2023/03/26 19:03:43;;;;;;;10.18;1.75;;;4.90;99.90;;;;;;15399987;23;20032;-81
2023/03/26 19:09:45;;;;;;;10.13;1.60;;;4.80;99.90;;;;;;15405713;23;20021;-81
2023/03/26 19:15:53;;;;;;;14.90;1.50;;;4.70;99.90;;;;;;15427280;23;20021;-80
2023/03/26 19:21:55;;;;;;;5.45;1.10;;;4.60;99.90;;;;;;15400854;23;20147;-80
2023/03/26 19:28:00;;;;;;;20.15;1.88;;;4.50;99.90;;;;;;15401351;23;20024;-81
2023/03/26 19:34:13;;;;;;;14.23;1.40;;;4.30;99.90;;;;;;15396156;23;20042;-80
2023/03/26 19:40:30;;;;;;;8.00;1.00;;;4.20;99.90;;;;;;15428433;23;20476;-80
2023/03/26 19:46:33;;;;;;;9.05;1.90;;;4.20;99.90;;;;;;15425982;23;20093;-80
2023/03/26 19:53:12;;;;;;;11.40;1.65;;;4.10;99.90;;;;;;15405899;23;20032;-80
2023/03/26 19:59:18;;;;;;;18.95;1.70;;;4.00;99.90;;;;;;15429053;23;20013;-81
2023/03/26 20:05:25;;;;;;;10.82;1.98;;;3.90;99.90;;;;;;15398954;23;20544;-80
2023/03/26 20:11:35;;;;;;;11.57;1.65;;;3.90;99.90;;;;;;15402225;23;20039;-80
2023/03/26 20:17:41;;;;;;;9.57;1.88;;;3.80;99.90;;;;;;15403276;23;20052;-80
2023/03/26 20:23:43;;;;;;;16.25;1.65;;;3.80;99.90;;;;;;15396447;23;20024;-80
2023/03/26 20:29:46;;;;;;;14.10;1.63;;;3.70;99.90;;;;;;15397084;23;20025;-80
2023/03/26 20:35:48;;;;;;;11.30;1.92;;;3.60;99.90;;;;;;15392767;23;20031;-80
2023/03/26 20:41:51;;;;;;;11.63;1.10;;;3.50;99.90;;;;;;15428054;23;20032;-80
2023/03/26 20:47:53;;;;;;;11.48;1.45;;;3.50;99.90;;;;;;15395782;23;20079;-80
2023/03/26 20:53:55;;;;;;;10.82;1.33;;;3.30;99.90;;;;;;15426034;23;20359;-80
2023/03/26 20:59:58;;;;;;;10.10;1.40;;;3.20;99.90;;;;;;15425508;23;20514;-81
2023/03/26 21:06:02;;;;;;;9.68;1.30;;;3.20;99.90;;;;;;15401107;23;20401;-80
2023/03/26 21:12:06;;;;;;;10.77;1.77;;;3.20;99.90;;;;;;15401397;23;20013;-79
2023/03/26 21:18:09;;;;;;;13.53;2.33;;;3.20;99.90;;;;;;15395924;23;20241;-80
2023/03/26 21:24:22;;;;;;;11.45;1.30;;;3.20;99.90;;;;;;15398940;23;20028;-80
2023/03/26 21:30:25;;;;;;;9.40;1.30;;;3.20;99.90;;;;;;15420806;23;20028;-80
2023/03/26 21:36:27;;;;;;;13.75;1.85;;;3.20;99.90;;;;;;15398187;23;20028;-80
2023/03/26 21:42:29;;;;;;;10.18;1.40;;;3.00;99.90;;;;;;15420627;23;20024;-81
2023/03/26 21:48:32;;;;;;;10.07;1.60;;;3.10;99.90;;;;;;15400294;23;20072;-80
2023/03/26 21:54:34;;;;;;;12.13;1.40;;;3.10;99.90;;;;;;15399237;23;20119;-80
2023/03/26 22:01:08;;;;;;;7.63;1.38;;;3.10;99.90;;;;;;15401766;23;20028;-81
2023/03/26 22:07:16;;;;;;;12.32;1.73;;;3.00;99.90;;;;;;15416293;23;20228;-79
2023/03/26 22:13:18;;;;;;;9.52;1.42;;;2.90;99.90;;;;;;15403656;23;20047;-80
2023/03/26 22:19:20;;;;;;;12.68;1.63;;;2.90;99.90;;;;;;15433789;23;20067;-80
2023/03/26 22:25:22;;;;;;;7.80;1.40;;;2.90;99.90;;;;;;15401356;23;20029;-80
2023/03/26 22:31:25;;;;;;;13.27;1.38;;;2.80;99.90;;;;;;15403423;23;20390;-80
2023/03/26 22:37:27;;;;;;;12.05;1.50;;;2.80;99.90;;;;;;15470021;23;20099;-80
2023/03/26 22:43:29;;;;;;;8.23;1.10;;;2.80;99.90;;;;;;15499098;22;20038;-80
2023/03/26 22:49:31;;;;;;;8.30;1.30;;;2.60;99.90;;;;;;15496857;22;20083;-79
2023/03/26 22:55:33;;;;;;;10.48;1.58;;;2.50;99.90;;;;;;15498963;23;20103;-80
2023/03/26 23:01:35;;;;;;;16.67;1.50;;;2.50;99.90;;;;;;15499603;22;20020;-80
2023/03/26 23:07:37;;;;;;;19.10;2.40;;;2.40;99.90;;;;;;15501049;23;20016;-80
2023/03/26 23:13:40;;;;;;;10.93;1.95;;;2.30;99.90;;;;;;15502298;22;20047;-80
2023/03/26 23:19:43;;;;;;;10.43;1.73;;;2.30;99.90;;;;;;15504886;22;20023;-80
2023/03/26 23:25:45;;;;;;;7.75;1.20;;;2.30;99.90;;;;;;15500327;23;20024;-79
2023/03/26 23:31:47;;;;;;;14.65;1.73;;;2.20;99.90;;;;;;15504231;23;20106;-79
2023/03/26 23:37:49;;;;;;;9.38;1.30;;;2.30;99.90;;;;;;15504277;22;20093;-79
2023/03/26 23:43:54;;;;;;;9.25;2.15;;;2.20;99.90;;;;;;15501517;22;20052;-80
2023/03/26 23:49:57;;;;;;;12.35;1.73;;;2.20;99.90;;;;;;15506231;23;20020;-80
2023/03/26 23:55:59;;;;;;;7.30;1.40;;;2.10;99.90;;;;;;15500088;23;20051;-80
